Time,TemperatureF,DewpointF,PressureIn,WindDirection,WindDirectionDegrees,WindSpeedMPH,WindSpeedGustMPH,Humidity,HourlyPrecipIn,Conditions,Clouds,dailyrainin,SolarRadiationWatts/m^2,SoftwareType,DateUTC
2013-03-06 00:01:00,41.0,36.0,29.80,NE,49,3.0,11.0,83,-99.99,,,0.00,0.000000,,2013-03-06 08:01:00,
2013-03-06 00:11:00,41.0,36.0,29.80,NE,49,3.0,11.0,83,-99.99,,,0.00,0.000000,,2013-03-06 08:11:00,
2013-03-06 00:42:00,41.0,36.0,29.77,NE,54,3.0,9.0,83,-99.99,,,0.00,0.000000,,2013-03-06 08:42:00,
2013-03-06 00:52:00,41.0,36.0,29.77,NE,54,3.0,9.0,83,-99.99,,,0.00,0.000000,,2013-03-06 08:52:00,
2013-03-06 01:01:00,41.0,36.0,29.77,NE,54,3.0,9.0,83,-99.99,,,0.00,0.000000,,2013-03-06 09:01:00,
2013-03-06 01:12:00,41.0,36.0,29.77,NE,54,3.0,9.0,83,-99.99,,,0.00,0.000000,,2013-03-06 09:12:00,
2013-03-06 01:31:00,41.0,36.0,29.75,ENE,69,3.0,8.0,82,-99.99,,,0.00,0.000000,,2013-03-06 09:31:00,
2013-03-06 01:42:00,41.0,36.0,29.75,ENE,69,3.0,8.0,82,-99.99,,,0.00,0.000000,,2013-03-06 09:42:00,
2013-03-06 01:52:00,41.0,36.0,29.75,ENE,69,3.0,8.0,82,-99.99,,,0.00,0.000000,,2013-03-06 09:52:00,
2013-03-06 02:01:00,41.0,36.0,29.75,ENE,69,3.0,8.0,82,-99.99,,,0.00,0.000000,,2013-03-06 10:01:00,
2013-03-06 02:11:00,41.0,36.0,29.75,ENE,69,3.0,8.0,82,-99.99,,,0.00,0.000000,,2013-03-06 10:11:00,
2013-03-06 02:42:00,42.0,36.0,29.72,ENE,59,3.0,7.0,80,-99.99,,,0.00,0.000000,,2013-03-06 10:42:00,
2013-03-06 02:52:00,42.0,36.0,29.72,ENE,59,3.0,7.0,80,-99.99,,,0.00,0.000000,,2013-03-06 10:52:00,
2013-03-06 03:02:00,42.0,36.0,29.72,ENE,59,3.0,7.0,80,-99.99,,,0.00,0.000000,,2013-03-06 11:02:00,
2013-03-06 03:11:00,42.0,36.0,29.72,ENE,59,3.0,7.0,80,-99.99,,,0.00,0.000000,,2013-03-06 11:11:00,
2013-03-06 03:42:00,41.0,37.0,29.69,ENE,66,2.0,9.0,86,-99.99,,,0.00,0.000000,,2013-03-06 11:42:00,
2013-03-06 03:52:00,41.0,37.0,29.69,ENE,66,2.0,9.0,86,-99.99,,,0.00,0.000000,,2013-03-06 11:52:00,
2013-03-06 04:01:00,41.0,37.0,29.69,ENE,66,2.0,9.0,86,-99.99,,,0.00,0.000000,,2013-03-06 12:01:00,
2013-03-06 04:11:00,41.0,37.0,29.69,ENE,66,2.0,9.0,86,-99.99,,,0.00,0.000000,,2013-03-06 12:11:00,
2013-03-06 04:42:00,40.0,38.0,29.67,ENE,73,1.0,4.0,92,-99.99,,,0.00,0.000000,,2013-03-06 12:42:00,
2013-03-06 04:52:00,40.0,38.0,29.67,ENE,73,1.0,4.0,92,-99.99,,,0.00,0.000000,,2013-03-06 12:52:00,
2013-03-06 05:01:00,40.0,38.0,29.67,ENE,73,1.0,4.0,92,-99.99,,,0.00,0.000000,,2013-03-06 13:01:00,
2013-03-06 05:11:00,40.0,38.0,29.67,ENE,73,1.0,4.0,92,-99.99,,,0.00,0.000000,,2013-03-06 13:11:00,
2013-03-06 05:42:00,40.0,38.0,29.67,East,89,3.0,7.0,92,-99.99,,,0.01,0.000000,,2013-03-06 13:42:00,
2013-03-06 05:52:00,40.0,38.0,29.67,East,89,3.0,7.0,92,-99.99,,,0.01,0.000000,,2013-03-06 13:52:00,
2013-03-06 06:01:00,40.0,38.0,29.67,East,89,3.0,7.0,92,-99.99,,,0.01,0.000000,,2013-03-06 14:01:00,
2013-03-06 06:11:00,40.0,38.0,29.67,East,89,3.0,7.0,92,-99.99,,,0.01,0.000000,,2013-03-06 14:11:00,
2013-03-06 06:42:00,39.0,37.0,29.66,ENE,77,3.0,8.0,92,-99.99,,,0.01,0.000000,,2013-03-06 14:42:00,
2013-03-06 06:52:00,39.0,37.0,29.66,ENE,77,3.0,8.0,92,-99.99,,,0.01,0.000000,,2013-03-06 14:52:00,
2013-03-06 07:01:00,39.0,37.0,29.66,ENE,77,3.0,8.0,92,-99.99,,,0.01,0.000000,,2013-03-06 15:01:00,
2013-03-06 07:11:00,39.0,37.0,29.66,ENE,77,3.0,8.0,92,-99.99,,,0.01,0.000000,,2013-03-06 15:11:00,
2013-03-06 07:42:00,39.0,37.0,29.66,ENE,67,2.0,12.0,91,-99.99,,,0.01,3.020000,,2013-03-06 15:42:00,
2013-03-06 07:52:00,39.0,37.0,29.66,ENE,67,2.0,12.0,91,-99.99,,,0.01,3.020000,,2013-03-06 15:52:00,
2013-03-06 08:01:00,39.0,37.0,29.66,ENE,67,2.0,12.0,91,-99.99,,,0.01,3.020000,,2013-03-06 16:01:00,
2013-03-06 08:11:00,39.0,37.0,29.66,ENE,67,2.0,12.0,91,-99.99,,,0.01,3.020000,,2013-03-06 16:11:00,
2013-03-06 08:42:00,39.0,37.0,29.66,NE,54,2.0,4.0,93,-99.99,,,0.01,14.640000,,2013-03-06 16:42:00,
2013-03-06 08:52:00,39.0,37.0,29.66,NE,54,2.0,4.0,93,-99.99,,,0.01,14.640000,,2013-03-06 16:52:00,
2013-03-06 09:01:00,39.0,37.0,29.66,NE,54,2.0,4.0,93,-99.99,,,0.01,14.640000,,2013-03-06 17:01:00,
2013-03-06 09:11:00,39.0,37.0,29.66,NE,54,2.0,4.0,93,-99.99,,,0.01,14.640000,,2013-03-06 17:11:00,
2013-03-06 09:41:00,39.0,38.0,29.69,ESE,116,1.0,4.0,93,-99.99,,,0.01,26.379999,,2013-03-06 17:41:00,
2013-03-06 09:52:00,39.0,38.0,29.69,ESE,116,1.0,4.0,93,-99.99,,,0.01,26.379999,,2013-03-06 17:52:00,
2013-03-06 10:01:00,39.0,38.0,29.69,ESE,116,1.0,4.0,93,-99.99,,,0.01,26.379999,,2013-03-06 18:01:00,
2013-03-06 10:42:00,39.0,38.0,29.71,East,84,1.0,2.0,94,-99.99,,,0.01,35.799999,,2013-03-06 18:42:00,
2013-03-06 10:52:00,39.0,38.0,29.71,East,84,1.0,2.0,94,-99.99,,,0.01,35.799999,,2013-03-06 18:52:00,
2013-03-06 11:02:00,39.0,38.0,29.71,East,84,1.0,2.0,94,-99.99,,,0.01,35.799999,,2013-03-06 19:02:00,
2013-03-06 11:11:00,39.0,38.0,29.71,East,84,1.0,2.0,94,-99.99,,,0.01,35.799999,,2013-03-06 19:11:00,
2013-03-06 11:43:00,39.0,38.0,29.74,SE,128,0.0,1.0,93,-99.99,,,0.02,131.210007,,2013-03-06 19:43:00,
2013-03-06 11:53:00,39.0,38.0,29.74,SE,128,0.0,1.0,93,-99.99,,,0.02,131.210007,,2013-03-06 19:53:00,
2013-03-06 12:01:00,39.0,38.0,29.74,SE,128,0.0,1.0,93,-99.99,,,0.02,131.210007,,2013-03-06 20:01:00,
2013-03-06 12:11:00,39.0,38.0,29.74,SE,128,0.0,1.0,93,-99.99,,,0.02,131.210007,,2013-03-06 20:11:00,
2013-03-06 12:42:00,40.0,37.0,29.76,West,260,2.0,4.0,90,-99.99,,,0.02,169.449997,,2013-03-06 20:42:00,
2013-03-06 12:52:00,40.0,37.0,29.76,West,260,2.0,4.0,90,-99.99,,,0.02,169.449997,,2013-03-06 20:52:00,
2013-03-06 13:02:00,40.0,37.0,29.76,West,260,2.0,4.0,90,-99.99,,,0.02,169.449997,,2013-03-06 21:02:00,
2013-03-06 13:11:00,40.0,37.0,29.76,West,260,2.0,4.0,90,-99.99,,,0.02,169.449997,,2013-03-06 21:11:00,
2013-03-06 13:42:00,41.0,39.0,29.78,WSW,252,6.0,12.0,89,-99.99,,,0.02,149.339996,,2013-03-06 21:42:00,
2013-03-06 13:52:00,41.0,39.0,29.78,WSW,252,6.0,12.0,89,-99.99,,,0.02,149.339996,,2013-03-06 21:52:00,
2013-03-06 14:01:00,41.0,39.0,29.78,WSW,252,6.0,12.0,89,-99.99,,,0.02,149.339996,,2013-03-06 22:01:00,
2013-03-06 14:11:00,41.0,39.0,29.78,WSW,252,6.0,12.0,89,-99.99,,,0.02,149.339996,,2013-03-06 22:11:00,
2013-03-06 14:41:00,41.0,38.0,29.80,West,272,10.0,16.0,89,-99.99,,,0.02,89.949997,,2013-03-06 22:41:00,
2013-03-06 14:52:00,41.0,38.0,29.80,West,272,10.0,16.0,89,-99.99,,,0.02,89.949997,,2013-03-06 22:52:00,
2013-03-06 15:01:00,41.0,38.0,29.80,West,272,10.0,16.0,89,-99.99,,,0.02,89.949997,,2013-03-06 23:01:00,
2013-03-06 15:11:00,41.0,38.0,29.80,West,272,10.0,16.0,89,-99.99,,,0.02,89.949997,,2013-03-06 23:11:00,
2013-03-06 15:42:00,42.0,38.0,29.84,West,264,10.0,22.0,87,-99.99,,,0.03,30.100000,,2013-03-06 23:42:00,
2013-03-06 15:52:00,42.0,38.0,29.84,West,264,10.0,22.0,87,-99.99,,,0.03,30.100000,,2013-03-06 23:52:00,
2013-03-06 16:01:00,42.0,38.0,29.84,West,264,10.0,22.0,87,-99.99,,,0.03,30.100000,,2013-03-07 00:01:00,
2013-03-06 16:11:00,42.0,38.0,29.84,West,264,10.0,22.0,87,-99.99,,,0.03,30.100000,,2013-03-07 00:11:00,
2013-03-06 16:32:00,43.0,39.0,29.85,West,260,10.0,18.0,86,-99.99,,,0.03,43.230000,,2013-03-07 00:32:00,
2013-03-06 16:41:00,43.0,39.0,29.85,West,260,10.0,18.0,86,-99.99,,,0.03,43.230000,,2013-03-07 00:41:00,
2013-03-06 16:52:00,43.0,39.0,29.85,West,260,10.0,18.0,86,-99.99,,,0.03,43.230000,,2013-03-07 00:52:00,
2013-03-06 17:01:00,43.0,39.0,29.85,West,260,10.0,18.0,86,-99.99,,,0.03,43.230000,,2013-03-07 01:01:00,
2013-03-06 17:11:00,43.0,39.0,29.85,West,260,10.0,18.0,86,-99.99,,,0.03,43.230000,,2013-03-07 01:11:00,
2013-03-06 17:41:00,43.0,40.0,29.86,WSW,244,7.0,14.0,86,-99.99,,,0.03,23.480000,,2013-03-07 01:41:00,
2013-03-06 17:52:00,43.0,40.0,29.86,WSW,244,7.0,14.0,86,-99.99,,,0.03,23.480000,,2013-03-07 01:52:00,
2013-03-06 18:01:00,43.0,40.0,29.86,WSW,244,7.0,14.0,86,-99.99,,,0.03,23.480000,,2013-03-07 02:01:00,
2013-03-06 18:11:00,43.0,40.0,29.86,WSW,244,7.0,14.0,86,-99.99,,,0.03,23.480000,,2013-03-07 02:11:00,
2013-03-06 18:31:00,45.0,40.0,29.88,WSW,240,8.0,16.0,82,-99.99,,,-99.99,0.580000,,2013-03-07 02:31:00,
2013-03-06 18:41:00,45.0,40.0,29.88,WSW,240,8.0,16.0,82,-99.99,,,-99.99,0.580000,,2013-03-07 02:41:00,
2013-03-06 18:52:00,45.0,40.0,29.88,WSW,240,8.0,16.0,82,-99.99,,,-99.99,0.580000,,2013-03-07 02:52:00,
2013-03-06 19:01:00,45.0,40.0,29.88,WSW,240,8.0,16.0,82,-99.99,,,-99.99,0.580000,,2013-03-07 03:01:00,
2013-03-06 19:11:00,45.0,40.0,29.88,WSW,240,8.0,16.0,82,-99.99,,,-99.99,0.580000,,2013-03-07 03:11:00,
2013-03-06 19:41:00,45.0,40.0,29.91,West,271,8.0,13.0,80,-99.99,,,0.03,0.000000,,2013-03-07 03:41:00,
2013-03-06 19:52:00,45.0,40.0,29.91,West,271,8.0,13.0,80,-99.99,,,0.03,0.000000,,2013-03-07 03:52:00,
2013-03-06 20:01:00,45.0,40.0,29.91,West,271,8.0,13.0,80,-99.99,,,0.03,0.000000,,2013-03-07 04:01:00,
2013-03-06 20:11:00,45.0,40.0,29.91,West,271,8.0,13.0,80,-99.99,,,0.03,0.000000,,2013-03-07 04:11:00,
2013-03-06 20:41:00,45.0,39.0,29.93,West,263,8.0,16.0,79,-99.99,,,0.03,0.000000,,2013-03-07 04:41:00,
2013-03-06 20:52:00,45.0,39.0,29.93,West,263,8.0,16.0,79,-99.99,,,0.03,0.000000,,2013-03-07 04:52:00,
2013-03-06 21:01:00,45.0,39.0,29.93,West,263,8.0,16.0,79,-99.99,,,0.03,0.000000,,2013-03-07 05:01:00,
2013-03-06 21:12:00,45.0,39.0,29.93,West,263,8.0,16.0,79,-99.99,,,0.03,0.000000,,2013-03-07 05:12:00,
2013-03-06 21:32:00,46.0,39.0,29.96,West,266,9.0,15.0,77,-99.99,,,0.03,0.000000,,2013-03-07 05:32:00,
2013-03-06 21:42:00,46.0,39.0,29.96,West,266,9.0,15.0,77,-99.99,,,0.03,0.000000,,2013-03-07 05:42:00,
2013-03-06 21:52:00,46.0,39.0,29.96,West,266,9.0,15.0,77,-99.99,,,0.03,0.000000,,2013-03-07 05:52:00,
2013-03-06 22:01:00,46.0,39.0,29.96,West,266,9.0,15.0,77,-99.99,,,0.03,0.000000,,2013-03-07 06:01:00,
2013-03-06 22:11:00,46.0,39.0,29.96,West,266,9.0,15.0,77,-99.99,,,0.03,0.000000,,2013-03-07 06:11:00,
2013-03-06 22:31:00,46.0,38.0,29.98,West,267,9.0,15.0,72,-99.99,,,0.03,0.000000,,2013-03-07 06:31:00,
2013-03-06 22:41:00,46.0,38.0,-100.00,West,267,9.0,15.0,72,-99.99,,,0.03,0.000000,,2013-03-07 06:41:00,
2013-03-06 22:52:00,46.0,38.0,-100.00,West,267,9.0,15.0,72,-99.99,,,0.03,0.000000,,2013-03-07 06:52:00,
2013-03-06 23:01:00,46.0,38.0,29.98,West,267,9.0,15.0,72,-99.99,,,0.03,0.000000,,2013-03-07 07:01:00,
2013-03-06 23:11:00,46.0,38.0,29.98,West,267,9.0,15.0,72,-99.99,,,0.03,0.000000,,2013-03-07 07:11:00,
2013-03-06 23:42:00,45.0,38.0,30.00,West,264,8.0,13.0,75,-99.99,,,0.03,0.000000,,2013-03-07 07:42:00,
2013-03-06 23:52:00,45.0,38.0,30.00,West,264,8.0,13.0,75,-99.99,,,0.03,0.000000,,2013-03-07 07:52:00,